Impacts METAR Board
IDs:

KLGA - New York/La Guardia, NY, US

Updated at: 2200 UTC 25 May 2018
Potential Impact None Slight Moderate High
Time 25/10Z 25/11Z 25/12Z 25/13Z 25/14Z 25/15Z 25/16Z 25/17Z 25/18Z 25/19Z 25/20Z 25/21Z 25/22Z
Temp68 70 73 76 80 82 84 86 87 88 88 88 88
Dewpt51 51 51 51 50 49 48 46 47 47 51 52 53
Altim30.05 30.04 30.03 30.02 30.00 29.98 29.96 29.93 29.91 29.89 29.87 29.84 29.82
VIS10 10 10 10 10 10 10 10 10 10 10 10 10
CIG-- -- -- -- -- -- 250 250 250 250 250 250 250
CoverFEWFEWCLRFEWFEWFEWBKNBKNBKNBKNBKNBKNBKN
FltCatVFRVFRVFRVFRVFRVFRVFRVFRVFRVFRVFRVFRVFR
WX--------------------------
WDir230230220230230250230210230250240230230
WSpd6 6 7 6 8 8 11 13 13 12 14 15 12
WGst-- -- -- -- -- 15 -- 19 21 21 -- 24 24
Raw hourly METARs
KLGA 250951Z 23006KT 10SM FEW250 20/11 A3005 RMK AO2 SLP174 T02000106
KLGA 251051Z 23006KT 10SM FEW250 21/11 A3004 RMK AO2 SLP173 T02110106
KLGA 251151Z 22007KT 10SM CLR 23/11 A3003 RMK AO2 SLP170 T02280106 10228 20200 58001
KLGA 251251Z 23006KT 10SM FEW250 24/11 A3002 RMK AO2 SLP166 T02440106
KLGA 251351Z 23008KT 10SM FEW250 27/10 A3000 RMK AO2 SLP160 T02670100
KLGA 251451Z 25008G15KT 10SM FEW250 28/09 A2998 RMK AO2 SLP153 T02780094 58017
KLGA 251551Z 23011KT 10SM BKN250 29/09 A2996 RMK AO2 SLP146 T02890089
KLGA 251651Z 21013G19KT 10SM BKN250 30/08 A2993 RMK AO2 SLP136 T03000078
KLGA 251751Z 23013G21KT 10SM BKN250 31/08 A2991 RMK AO2 SLP129 T03060083 10306 20228 56024
KLGA 251851Z 25012G21KT 10SM BKN250 31/08 A2989 RMK AO2 SLP121 T03110083
KLGA 251951Z 24014KT 10SM BKN250 31/11 A2987 RMK AO2 SLP113 T03110106
KLGA 252051Z 23015G24KT 10SM FEW060 BKN250 31/11 A2984 RMK AO2 SLP104 T03110111 58024
KLGA 252151Z 23012G24KT 10SM FEW060 BKN250 31/12 A2982 RMK AO2 SLP099 T03110117



Page loaded:  22:19 UTC  |   03:19 PM Pacific  |   04:19 PM Mountain  |   05:19 PM Central  |   06:19 PM Eastern

 

ADVISORIES

FORECASTS

FORECASTS

OBSERVATIONS

USER TOOLS

ABOUT US